Time;durP1;ratioP1;P1;durP2;ratioP2;P2;SDS_P1;SDS_P2;PMS_P1;PMS_P2;Temp;Humidity;BMP_temperature;BMP_pressure;BME280_temperature;BME280_humidity;BME280_pressure;Samples;Min_cycle;Max_cycle;Signal;HPM_P1;HPM_P2
2021/06/12 00:01:08;;;;;;;26.42;22.25;;;15.60;99.90;;;;;;5013267;28;20691;-80
2021/06/12 00:03:36;;;;;;;24.63;22.20;;;15.80;99.90;;;;;;4966076;28;20142;-80
2021/06/12 00:06:04;;;;;;;28.05;25.15;;;15.80;99.90;;;;;;4976625;28;20046;-78
2021/06/12 00:08:31;;;;;;;22.58;20.23;;;15.90;99.90;;;;;;4994284;28;20043;-79
2021/06/12 00:11:00;;;;;;;28.40;21.35;;;15.80;99.90;;;;;;4973885;28;20093;-81
2021/06/12 00:13:28;;;;;;;29.15;26.13;;;15.80;99.90;;;;;;4961205;28;20060;-80
2021/06/12 00:15:55;;;;;;;27.35;24.48;;;15.70;99.90;;;;;;4963642;28;20058;-81
2021/06/12 00:18:23;;;;;;;25.55;22.95;;;15.70;99.90;;;;;;4980332;28;20698;-82
2021/06/12 00:20:56;;;;;;;27.67;24.70;;;15.80;99.90;;;;;;4970246;28;20553;-82
2021/06/12 00:23:23;;;;;;;27.10;24.20;;;15.80;99.90;;;;;;4939516;28;20059;-81
2021/06/12 00:25:50;;;;;;;26.15;23.65;;;15.80;99.90;;;;;;4937992;28;20053;-80
2021/06/12 00:28:17;;;;;;;25.70;23.02;;;15.90;99.90;;;;;;4951760;28;20062;-80
2021/06/12 00:30:44;;;;;;;24.83;22.27;;;15.90;99.90;;;;;;4963683;28;20406;-80
2021/06/12 00:33:11;;;;;;;25.73;22.38;;;15.70;99.90;;;;;;4978171;28;20050;-79
2021/06/12 00:35:38;;;;;;;28.90;24.48;;;15.70;99.90;;;;;;5004681;28;20054;-81
2021/06/12 00:38:05;;;;;;;30.70;26.05;;;15.70;99.90;;;;;;5007678;28;20379;-78
2021/06/12 00:40:32;;;;;;;29.60;26.40;;;15.60;99.90;;;;;;4978499;28;20533;-81
2021/06/12 00:42:58;;;;;;;28.10;24.80;;;15.70;99.90;;;;;;4924182;28;20172;-82
2021/06/12 00:45:29;;;;;;;31.25;27.73;;;15.60;99.90;;;;;;4933289;28;20114;-79
2021/06/12 00:47:58;;;;;;;30.77;26.10;;;15.70;99.90;;;;;;4946222;28;20050;-81
2021/06/12 00:50:28;;;;;;;34.13;30.23;;;15.70;99.90;;;;;;4956137;28;20497;-81
2021/06/12 00:52:55;;;;;;;32.33;27.55;;;15.60;99.90;;;;;;4955342;28;20051;-79
2021/06/12 00:55:22;;;;;;;32.03;28.50;;;15.60;99.90;;;;;;4941020;28;20297;-82
2021/06/12 00:57:50;;;;;;;26.77;23.77;;;15.60;99.90;;;;;;4966808;28;20052;-82
2021/06/12 01:00:20;;;;;;;43.05;31.92;;;15.60;99.90;;;;;;5006005;28;20053;-78
2021/06/12 01:02:48;;;;;;;42.33;31.55;;;15.70;99.90;;;;;;4962810;28;20112;-79
2021/06/12 01:05:17;;;;;;;34.15;30.33;;;15.70;99.90;;;;;;4959669;28;20136;-81
2021/06/12 01:07:44;;;;;;;34.33;29.90;;;15.60;99.90;;;;;;4997121;28;20515;-79
2021/06/12 01:10:15;;;;;;;34.55;30.33;;;15.60;99.90;;;;;;4982947;28;20554;-80
2021/06/12 01:13:03;;;;;;;35.58;29.75;;;15.60;99.90;;;;;;4978329;28;20049;-81
2021/06/12 01:15:42;;;;;;;31.98;28.20;;;15.60;99.90;;;;;;4976722;28;20343;-81
2021/06/12 01:18:13;;;;;;;33.08;27.55;;;15.60;99.90;;;;;;4979021;28;20056;-79
2021/06/12 01:21:18;;;;;;;35.50;28.25;;;15.60;99.90;;;;;;4971704;28;20038;-78
2021/06/12 01:23:54;;;;;;;46.67;33.30;;;15.60;99.90;;;;;;4956852;28;20057;-79
2021/06/12 01:26:29;;;;;;;36.83;29.90;;;15.60;99.90;;;;;;4970705;28;20122;-79
2021/06/12 01:29:31;;;;;;;32.13;26.60;;;15.60;99.90;;;;;;4989445;28;20060;-78
2021/06/12 01:32:00;;;;;;;35.28;29.92;;;15.60;99.90;;;;;;4985885;28;20052;-78
2021/06/12 01:34:29;;;;;;;40.80;31.52;;;15.70;99.90;;;;;;4994932;28;20053;-78
2021/06/12 01:36:57;;;;;;;40.10;30.48;;;15.60;99.90;;;;;;4996970;28;20061;-80
2021/06/12 01:39:26;;;;;;;42.50;31.50;;;15.60;99.90;;;;;;4994228;28;20063;-80
2021/06/12 01:41:57;;;;;;;38.95;30.50;;;15.60;99.90;;;;;;4984582;28;20144;-80
2021/06/12 01:44:27;;;;;;;39.33;30.27;;;15.60;99.90;;;;;;4982979;28;20113;-82
2021/06/12 01:46:55;;;;;;;36.28;29.10;;;15.50;99.90;;;;;;5033092;28;20049;-81
2021/06/12 01:49:24;;;;;;;37.50;29.63;;;15.60;99.90;;;;;;4996861;28;20124;-81
2021/06/12 01:51:52;;;;;;;38.45;28.73;;;15.60;99.90;;;;;;4996573;28;20678;-80
2021/06/12 01:54:19;;;;;;;36.15;28.52;;;15.70;99.90;;;;;;4987406;28;20042;-82
2021/06/12 01:56:47;;;;;;;33.03;28.17;;;15.70;99.90;;;;;;5022280;28;20036;-77
2021/06/12 01:59:15;;;;;;;32.10;26.67;;;15.70;99.90;;;;;;4989063;28;20057;-80
2021/06/12 02:01:47;;;;;;;38.92;28.33;;;15.70;99.90;;;;;;4979304;28;20058;-80
2021/06/12 02:04:18;;;;;;;36.83;27.38;;;15.80;99.90;;;;;;4982403;28;20115;-81
2021/06/12 02:06:47;;;;;;;32.28;26.77;;;15.80;99.90;;;;;;4988252;28;20540;-78
2021/06/12 02:09:18;;;;;;;33.25;27.40;;;15.80;99.90;;;;;;4963850;28;20038;-79
2021/06/12 02:11:46;;;;;;;35.85;27.05;;;15.80;99.90;;;;;;5007306;28;20076;-77
2021/06/12 02:14:15;;;;;;;35.80;28.10;;;15.90;99.90;;;;;;5021038;28;20657;-79
2021/06/12 02:16:43;;;;;;;37.03;27.60;;;15.90;99.90;;;;;;5000849;28;20053;-81
2021/06/12 02:19:11;;;;;;;38.03;28.13;;;15.90;99.90;;;;;;4985688;28;20077;-80
2021/06/12 02:21:40;;;;;;;37.53;27.40;;;16.00;99.90;;;;;;4982729;28;20049;-80
2021/06/12 02:24:08;;;;;;;32.67;25.98;;;15.90;99.90;;;;;;4980072;28;20088;-80
2021/06/12 02:26:41;;;;;;;35.90;28.75;;;15.80;99.90;;;;;;4976162;28;20042;-81
2021/06/12 02:29:12;;;;;;;38.45;30.38;;;15.80;99.90;;;;;;4975258;28;20058;-79
2021/06/12 02:31:48;;;;;;;37.60;29.00;;;15.80;99.90;;;;;;4974517;28;20062;-79
2021/06/12 02:34:15;;;;;;;40.88;28.92;;;15.80;99.90;;;;;;5017376;28;20088;-82
2021/06/12 02:36:42;;;;;;;33.55;27.80;;;15.90;99.90;;;;;;4965180;28;20051;-80
2021/06/12 02:39:09;;;;;;;37.70;29.83;;;15.90;99.90;;;;;;4959875;28;20050;-81
2021/06/12 02:41:36;;;;;;;34.65;27.65;;;15.90;99.90;;;;;;5000171;28;20438;-82
2021/06/12 02:44:04;;;;;;;37.60;27.33;;;16.00;99.90;;;;;;4991741;28;20600;-83
2021/06/12 02:46:32;;;;;;;34.35;26.23;;;16.10;99.90;;;;;;5003785;28;20050;-80
2021/06/12 02:49:06;;;;;;;36.78;26.55;;;16.10;99.90;;;;;;4974513;28;20077;-80
2021/06/12 02:51:36;;;;;;;33.67;25.02;;;16.30;99.90;;;;;;4957461;28;20109;-80
2021/06/12 02:54:03;;;;;;;37.10;25.67;;;16.30;99.90;;;;;;4939934;28;20073;-80
2021/06/12 02:56:32;;;;;;;36.03;26.35;;;16.40;99.90;;;;;;4937830;28;20301;-79
2021/06/12 02:59:05;;;;;;;36.13;25.50;;;16.40;99.90;;;;;;4983934;28;20053;-78
2021/06/12 03:01:34;;;;;;;32.50;24.10;;;16.50;99.90;;;;;;4973218;28;20046;-79
2021/06/12 03:04:03;;;;;;;30.85;24.00;;;16.50;99.90;;;;;;4972809;28;20070;-79
2021/06/12 03:06:30;;;;;;;33.53;23.90;;;16.60;99.90;;;;;;4976995;28;20483;-79
2021/06/12 03:08:59;;;;;;;35.45;24.48;;;16.60;99.90;;;;;;4972112;28;20054;-80
2021/06/12 03:11:29;;;;;;;36.80;25.60;;;16.70;99.90;;;;;;4961409;28;20138;-79
2021/06/12 03:13:57;;;;;;;35.92;24.95;;;16.90;99.90;;;;;;4976991;28;20060;-79
2021/06/12 03:16:25;;;;;;;33.97;23.02;;;17.00;99.90;;;;;;4977614;28;20757;-81
2021/06/12 03:18:53;;;;;;;29.75;22.65;;;16.90;99.90;;;;;;4977942;28;20054;-79
2021/06/12 03:21:24;;;;;;;35.63;24.90;;;17.00;99.90;;;;;;4994081;28;20046;-80
2021/06/12 03:23:53;;;;;;;37.50;26.23;;;17.10;99.90;;;;;;4981393;28;20065;-79
2021/06/12 03:26:21;;;;;;;37.25;25.23;;;17.10;99.90;;;;;;4951435;28;20416;-79
2021/06/12 03:28:49;;;;;;;33.08;23.60;;;17.10;99.90;;;;;;4992549;28;20137;-77
2021/06/12 03:31:17;;;;;;;32.55;23.65;;;17.10;99.90;;;;;;4976388;28;20046;-82
2021/06/12 03:33:45;;;;;;;34.60;25.63;;;17.10;99.90;;;;;;4959738;28;20142;-78
2021/06/12 03:36:13;;;;;;;31.63;23.40;;;17.10;99.90;;;;;;4993742;28;20070;-78
2021/06/12 03:38:40;;;;;;;36.13;22.75;;;17.10;99.90;;;;;;4975425;28;20137;-80
2021/06/12 03:41:08;;;;;;;32.40;24.25;;;17.10;99.90;;;;;;4991613;28;20050;-80
2021/06/12 03:43:36;;;;;;;36.28;24.63;;;17.10;99.90;;;;;;4991201;28;20080;-80
2021/06/12 03:46:05;;;;;;;31.38;23.23;;;17.10;99.90;;;;;;4990759;28;20506;-79
2021/06/12 03:48:32;;;;;;;31.98;22.50;;;17.10;99.90;;;;;;4992318;28;20114;-79
2021/06/12 03:51:00;;;;;;;34.22;23.77;;;17.10;99.90;;;;;;4978780;28;20232;-79
2021/06/12 03:53:31;;;;;;;32.70;22.80;;;17.10;99.90;;;;;;4982290;28;20121;-80
2021/06/12 03:56:01;;;;;;;34.97;23.60;;;17.00;99.90;;;;;;4988452;28;20045;-80
2021/06/12 03:58:28;;;;;;;33.00;23.20;;;17.10;99.90;;;;;;4989946;28;20049;-79
2021/06/12 04:00:55;;;;;;;36.22;22.67;;;17.10;99.90;;;;;;4990496;28;20103;-77
2021/06/12 04:03:22;;;;;;;32.72;23.50;;;17.10;99.90;;;;;;5006100;28;20505;-81
2021/06/12 04:05:49;;;;;;;34.20;23.95;;;17.10;99.90;;;;;;4957699;28;20042;-79
2021/06/12 04:08:15;;;;;;;31.33;22.10;;;17.10;99.90;;;;;;4963108;28;20116;-80
2021/06/12 04:10:42;;;;;;;33.70;23.02;;;17.10;99.90;;;;;;4977464;28;20050;-81
2021/06/12 04:13:09;;;;;;;31.67;22.75;;;17.10;99.90;;;;;;4981693;28;20070;-79
2021/06/12 04:15:36;;;;;;;31.15;21.48;;;17.00;99.90;;;;;;4987533;28;20058;-77
2021/06/12 04:18:08;;;;;;;33.83;23.30;;;17.00;99.90;;;;;;5002632;28;20123;-79
2021/06/12 04:20:38;;;;;;;34.67;22.88;;;17.00;99.90;;;;;;4964748;28;20054;-79
2021/06/12 04:23:05;;;;;;;34.45;23.17;;;17.00;99.90;;;;;;4977758;28;20077;-79
2021/06/12 04:25:32;;;;;;;38.90;24.10;;;17.10;99.90;;;;;;4956019;28;20122;-78
2021/06/12 04:27:59;;;;;;;36.92;23.58;;;17.00;99.90;;;;;;4955376;28;20125;-79
2021/06/12 04:30:26;;;;;;;34.78;24.17;;;17.20;99.90;;;;;;4960461;28;20035;-80
2021/06/12 04:32:58;;;;;;;34.67;23.45;;;17.20;99.90;;;;;;4969572;28;20049;-80
2021/06/12 04:35:27;;;;;;;39.83;24.90;;;17.10;99.90;;;;;;4975958;28;20050;-80
2021/06/12 04:37:58;;;;;;;37.55;26.02;;;17.10;99.90;;;;;;4994053;28;20081;-80
2021/06/12 04:40:32;;;;;;;35.60;24.05;;;17.20;99.90;;;;;;4996241;28;20065;-81
2021/06/12 04:43:01;;;;;;;40.78;25.27;;;17.20;99.90;;;;;;4987868;28;20046;-80
2021/06/12 04:45:28;;;;;;;35.75;24.50;;;17.10;99.90;;;;;;4985793;28;20045;-81
2021/06/12 04:47:56;;;;;;;36.90;24.05;;;17.10;99.90;;;;;;4923231;28;20082;-80
2021/06/12 04:50:23;;;;;;;34.53;24.17;;;17.10;99.90;;;;;;4954768;28;20043;-79
2021/06/12 04:52:50;;;;;;;38.63;24.98;;;17.10;99.90;;;;;;4991403;28;20065;-78
2021/06/12 04:55:18;;;;;;;42.42;26.27;;;17.10;99.90;;;;;;4971024;28;20061;-79
2021/06/12 04:57:45;;;;;;;42.97;26.55;;;17.10;99.90;;;;;;4949370;28;20112;-80
2021/06/12 05:00:13;;;;;;;40.90;26.17;;;17.10;99.90;;;;;;4990068;28;20150;-79
2021/06/12 05:02:40;;;;;;;43.67;26.63;;;17.20;99.90;;;;;;4966671;28;20034;-80
2021/06/12 05:05:09;;;;;;;38.13;24.45;;;17.20;99.90;;;;;;4975213;28;20053;-78
2021/06/12 05:07:36;;;;;;;38.38;23.90;;;17.10;99.90;;;;;;5012591;28;20242;-80
2021/06/12 05:10:05;;;;;;;41.42;25.58;;;17.20;99.90;;;;;;4998303;28;20105;-79
2021/06/12 05:12:32;;;;;;;38.53;24.10;;;17.20;99.90;;;;;;4966688;28;20068;-79
2021/06/12 05:15:01;;;;;;;39.15;25.33;;;17.20;99.90;;;;;;4996372;28;20081;-79
2021/06/12 05:17:29;;;;;;;40.58;25.45;;;17.20;99.90;;;;;;4977177;28;20245;-79
2021/06/12 05:19:56;;;;;;;38.90;23.88;;;17.30;99.90;;;;;;4993513;28;20042;-80
2021/06/12 05:22:28;;;;;;;33.80;23.27;;;17.30;99.90;;;;;;4992090;28;20077;-78
2021/06/12 05:24:55;;;;;;;41.65;23.67;;;17.30;99.90;;;;;;4974336;28;20061;-77
2021/06/12 05:27:23;;;;;;;33.78;22.85;;;17.40;99.90;;;;;;4974533;28;20076;-79
2021/06/12 05:29:50;;;;;;;35.40;21.85;;;17.50;99.90;;;;;;4974179;28;20054;-79
2021/06/12 05:32:17;;;;;;;30.63;21.30;;;17.50;99.90;;;;;;4985478;28;20139;-79
2021/06/12 05:34:44;;;;;;;29.92;20.83;;;17.50;99.90;;;;;;4990386;28;20413;-79
2021/06/12 05:37:13;;;;;;;26.52;19.45;;;17.80;99.90;;;;;;4994995;28;20077;-79
2021/06/12 05:39:40;;;;;;;27.48;19.08;;;17.90;99.90;;;;;;4981392;28;20045;-80
2021/06/12 05:42:07;;;;;;;25.55;18.88;;;18.10;99.90;;;;;;4995714;28;20545;-79
2021/06/12 05:44:34;;;;;;;26.58;18.15;;;18.30;99.90;;;;;;4945520;28;20050;-78
2021/06/12 05:47:01;;;;;;;23.45;18.38;;;18.30;99.90;;;;;;5013602;28;20081;-80
2021/06/12 05:49:28;;;;;;;26.42;19.50;;;18.30;99.90;;;;;;4985854;28;20042;-80
2021/06/12 05:51:55;;;;;;;24.25;17.60;;;18.20;99.90;;;;;;5013957;28;20096;-78
2021/06/12 05:54:22;;;;;;;25.67;20.15;;;18.10;99.90;;;;;;4977884;28;20054;-80
2021/06/12 05:56:48;;;;;;;29.40;19.33;;;17.90;99.90;;;;;;4975947;28;20259;-79
2021/06/12 05:59:15;;;;;;;20.77;17.40;;;17.90;99.90;;;;;;4977100;28;20125;-80
2021/06/12 06:01:42;;;;;;;28.98;20.48;;;18.00;99.90;;;;;;4991089;28;20037;-80
2021/06/12 06:04:10;;;;;;;22.23;18.13;;;18.10;99.90;;;;;;4991123;28;20117;-76
2021/06/12 06:06:38;;;;;;;24.63;19.33;;;18.20;99.90;;;;;;5014315;28;20064;-78
2021/06/12 06:09:05;;;;;;;25.38;19.17;;;18.10;99.90;;;;;;4992372;28;20052;-80
2021/06/12 06:11:35;;;;;;;25.58;18.38;;;18.00;99.90;;;;;;4961664;28;20077;-80
2021/06/12 06:14:03;;;;;;;28.52;20.00;;;18.00;99.90;;;;;;4983950;28;20046;-83
2021/06/12 06:16:30;;;;;;;24.30;19.38;;;18.10;99.90;;;;;;4967052;28;20085;-79
2021/06/12 06:18:57;;;;;;;25.40;19.40;;;18.00;99.90;;;;;;4996835;28;20089;-79
2021/06/12 06:21:24;;;;;;;24.50;17.75;;;18.00;99.90;;;;;;4965154;28;20048;-80
2021/06/12 06:23:51;;;;;;;24.52;19.77;;;18.00;99.90;;;;;;5017869;28;20118;-79
2021/06/12 06:26:18;;;;;;;24.83;20.08;;;18.10;99.90;;;;;;4998294;28;20200;-80
2021/06/12 06:28:45;;;;;;;22.75;18.60;;;18.10;99.90;;;;;;4967301;28;20110;-79
2021/06/12 06:31:12;;;;;;;26.17;20.75;;;18.10;99.90;;;;;;4996006;28;20053;-79
2021/06/12 06:33:39;;;;;;;26.80;20.10;;;18.10;99.90;;;;;;5012812;28;20053;-79
2021/06/12 06:36:06;;;;;;;28.65;20.63;;;18.10;99.90;;;;;;5014788;28;20056;-79
2021/06/12 06:38:33;;;;;;;26.50;21.75;;;18.20;99.90;;;;;;5031151;28;20046;-79
2021/06/12 06:41:00;;;;;;;30.17;24.58;;;18.40;99.90;;;;;;4978869;28;20096;-80
2021/06/12 06:43:28;;;;;;;25.40;22.00;;;18.40;99.90;;;;;;4962782;28;20042;-79
2021/06/12 06:45:55;;;;;;;26.50;21.02;;;18.50;99.90;;;;;;4980328;28;20042;-79
2021/06/12 06:48:22;;;;;;;26.75;22.00;;;18.50;99.90;;;;;;4990782;28;20081;-80
2021/06/12 06:50:49;;;;;;;25.73;20.52;;;18.50;99.90;;;;;;4970191;28;20081;-80
2021/06/12 06:53:16;;;;;;;27.50;20.10;;;18.50;99.90;;;;;;4928546;28;20058;-81
2021/06/12 06:55:43;;;;;;;27.02;20.90;;;18.50;99.90;;;;;;4948632;28;20046;-80
2021/06/12 06:58:10;;;;;;;29.17;23.20;;;18.50;99.90;;;;;;4998533;28;20052;-79
2021/06/12 07:00:37;;;;;;;24.52;21.55;;;18.40;99.90;;;;;;4992642;28;20053;-79
2021/06/12 07:03:04;;;;;;;25.50;20.13;;;18.40;99.90;;;;;;4999449;28;20041;-80
2021/06/12 07:05:31;;;;;;;24.02;20.45;;;18.50;99.90;;;;;;4981148;28;20267;-77
2021/06/12 07:07:58;;;;;;;26.40;20.98;;;18.60;99.90;;;;;;4976848;28;20042;-79
2021/06/12 07:10:25;;;;;;;32.83;22.75;;;18.60;99.90;;;;;;4981074;28;20537;-81
2021/06/12 07:12:58;;;;;;;26.60;20.08;;;18.70;99.90;;;;;;5010317;28;20049;-78
2021/06/12 07:15:26;;;;;;;24.60;21.17;;;18.80;99.90;;;;;;4981572;28;20057;-79
2021/06/12 07:17:53;;;;;;;24.80;21.65;;;18.80;99.90;;;;;;5016452;28;20434;-77
2021/06/12 07:20:21;;;;;;;22.88;19.98;;;18.60;99.90;;;;;;5007621;28;20114;-80
2021/06/12 07:22:47;;;;;;;24.88;19.77;;;18.60;99.90;;;;;;4983193;28;20046;-80
2021/06/12 07:25:15;;;;;;;25.25;22.33;;;18.60;99.90;;;;;;4993842;28;20046;-80
2021/06/12 07:27:42;;;;;;;29.52;22.98;;;18.60;99.90;;;;;;4984057;28;20099;-80
2021/06/12 07:30:09;;;;;;;24.80;22.08;;;18.60;99.90;;;;;;4972371;28;20547;-79
2021/06/12 07:32:36;;;;;;;27.55;21.38;;;18.50;99.90;;;;;;5010751;28;20054;-80
2021/06/12 07:35:04;;;;;;;24.48;21.58;;;18.60;99.90;;;;;;4998103;28;20578;-81
2021/06/12 07:37:31;;;;;;;24.63;21.88;;;18.50;99.90;;;;;;4959588;28;20050;-79
2021/06/12 07:39:58;;;;;;;24.17;21.30;;;18.30;99.90;;;;;;4944786;28;20609;-80
2021/06/12 07:42:25;;;;;;;28.65;22.17;;;18.40;99.90;;;;;;4959360;28;20055;-79
2021/06/12 07:44:52;;;;;;;24.55;21.25;;;18.50;99.90;;;;;;4943889;28;20035;-79
2021/06/12 07:47:19;;;;;;;24.92;21.25;;;18.40;99.90;;;;;;4974010;28;20143;-79
2021/06/12 07:49:46;;;;;;;25.70;21.77;;;18.40;99.90;;;;;;4972518;28;20085;-79
2021/06/12 07:52:13;;;;;;;27.70;21.45;;;18.40;99.90;;;;;;4956975;28;20105;-78
2021/06/12 07:54:40;;;;;;;27.27;20.75;;;18.50;99.90;;;;;;4974106;28;20053;-78
2021/06/12 07:57:07;;;;;;;28.48;22.90;;;18.60;99.90;;;;;;4944619;28;20054;-79
2021/06/12 07:59:34;;;;;;;28.42;21.38;;;18.30;99.90;;;;;;4976064;28;20046;-79
2021/06/12 08:02:01;;;;;;;30.92;20.02;;;18.30;99.90;;;;;;4957653;28;20046;-78
2021/06/12 08:04:29;;;;;;;24.70;20.92;;;18.30;99.90;;;;;;4992279;28;20052;-78
2021/06/12 08:06:56;;;;;;;24.88;20.83;;;18.20;99.90;;;;;;4972109;28;20049;-79
2021/06/12 08:09:23;;;;;;;24.88;19.58;;;18.20;99.90;;;;;;4975581;28;20089;-78
2021/06/12 08:11:51;;;;;;;24.67;18.98;;;18.20;99.90;;;;;;4991908;28;20050;-80
2021/06/12 08:14:18;;;;;;;26.00;19.58;;;18.20;99.90;;;;;;4987104;28;20074;-80
2021/06/12 08:16:45;;;;;;;22.70;17.98;;;18.20;99.90;;;;;;4978582;28;20136;-79
2021/06/12 08:19:12;;;;;;;27.55;19.35;;;18.30;99.90;;;;;;4995246;28;20050;-80
2021/06/12 08:21:39;;;;;;;28.42;19.35;;;18.30;99.90;;;;;;4964863;28;20046;-80
2021/06/12 08:24:06;;;;;;;23.73;18.60;;;18.30;99.90;;;;;;4964654;28;20488;-79
2021/06/12 08:26:33;;;;;;;27.77;18.25;;;18.40;99.90;;;;;;4977674;28;20046;-80
2021/06/12 08:29:01;;;;;;;31.65;19.42;;;18.40;99.90;;;;;;4992059;28;20501;-80
2021/06/12 08:31:28;;;;;;;27.58;18.15;;;18.30;99.90;;;;;;4999186;28;20046;-80
2021/06/12 08:33:55;;;;;;;29.48;18.67;;;18.30;99.90;;;;;;4966269;28;20430;-80
2021/06/12 08:36:22;;;;;;;26.17;18.98;;;18.30;99.90;;;;;;4982568;28;20049;-81
2021/06/12 08:38:49;;;;;;;28.23;19.10;;;18.20;99.90;;;;;;4999246;28;20104;-80
2021/06/12 08:41:17;;;;;;;34.30;24.70;;;18.10;99.90;;;;;;4966757;28;20065;-83
2021/06/12 08:43:44;;;;;;;41.00;26.08;;;18.10;99.90;;;;;;4981900;28;20056;-80
2021/06/12 08:46:28;;;;;;;39.20;27.08;;;17.90;99.90;;;;;;4982397;28;20334;-82
2021/06/12 08:48:56;;;;;;;41.40;28.73;;;17.70;99.90;;;;;;4990215;28;20070;-79
2021/06/12 08:51:23;;;;;;;37.75;29.25;;;17.70;99.90;;;;;;4976432;28;20566;-82
2021/06/12 08:53:51;;;;;;;46.15;34.53;;;17.60;99.90;;;;;;4944078;28;20061;-83
2021/06/12 08:56:18;;;;;;;51.50;38.05;;;17.60;99.90;;;;;;4948592;28;20733;-83
2021/06/12 08:58:45;;;;;;;50.92;37.53;;;17.60;99.90;;;;;;4971942;28;20044;-81
2021/06/12 09:01:19;;;;;;;52.92;42.17;;;17.50;99.90;;;;;;4956371;28;20081;-81
2021/06/12 09:03:51;;;;;;;49.90;39.42;;;17.50;99.90;;;;;;4968274;28;20068;-79
2021/06/12 09:06:20;;;;;;;59.00;45.22;;;17.30;99.90;;;;;;4976313;28;20444;-82
2021/06/12 09:09:00;;;;;;;58.20;43.30;;;17.40;99.90;;;;;;4963818;28;20054;-85
2021/06/12 09:11:31;;;;;;;49.10;36.30;;;17.30;99.90;;;;;;4981238;28;20085;-83
2021/06/12 09:14:03;;;;;;;47.45;34.50;;;17.30;99.90;;;;;;4957225;28;20586;-81
2021/06/12 09:16:33;;;;;;;42.90;30.77;;;17.30;99.90;;;;;;4969440;28;20061;-81
2021/06/12 09:19:16;;;;;;;45.10;32.40;;;17.30;99.90;;;;;;4960986;28;20145;-82
2021/06/12 09:21:46;;;;;;;43.67;32.45;;;17.30;99.90;;;;;;4944660;28;20175;-83
2021/06/12 09:24:25;;;;;;;35.55;27.17;;;17.30;99.90;;;;;;4976984;28;20047;-82
2021/06/12 09:26:58;;;;;;;48.10;32.45;;;17.30;99.90;;;;;;4974702;28;20042;-84
2021/06/12 09:29:44;;;;;;;42.10;30.67;;;17.30;99.90;;;;;;4960662;28;20046;-80
2021/06/12 09:32:32;;;;;;;47.83;32.30;;;17.20;99.90;;;;;;4996165;28;20137;-85
2021/06/12 09:35:08;;;;;;;41.55;32.25;;;17.10;99.90;;;;;;4983382;28;20062;-77
2021/06/12 09:37:36;;;;;;;43.53;31.92;;;17.00;99.90;;;;;;4969526;28;20057;-85
2021/06/12 09:40:08;;;;;;;45.80;32.67;;;17.10;99.90;;;;;;4978145;28;20050;-83
2021/06/12 09:42:49;;;;;;;41.75;32.20;;;17.10;99.90;;;;;;4959004;28;20047;-83
2021/06/12 09:45:24;;;;;;;40.38;30.25;;;17.10;99.90;;;;;;4956670;28;20152;-83
2021/06/12 09:47:51;;;;;;;45.17;32.78;;;17.10;99.90;;;;;;4977253;28;20065;-83
2021/06/12 09:50:21;;;;;;;44.08;34.03;;;17.20;99.90;;;;;;4956307;28;20054;-81
2021/06/12 09:52:52;;;;;;;43.22;31.80;;;17.20;99.90;;;;;;4960868;28;20061;-83
2021/06/12 09:55:28;;;;;;;44.78;34.45;;;17.20;99.90;;;;;;4979022;28;20118;-85
2021/06/12 09:58:01;;;;;;;48.30;37.38;;;17.30;99.90;;;;;;4964351;28;20078;-84
2021/06/12 10:00:36;;;;;;;44.60;34.60;;;17.50;99.90;;;;;;4975757;28;20042;-82
2021/06/12 10:03:03;;;;;;;;;;;17.80;99.90;;;;;;4981694;28;20045;-84
2021/06/12 10:05:30;;;;;;;44.30;37.80;;;18.00;99.90;;;;;;4966703;28;19949;-85
2021/06/12 10:07:57;;;;;;;42.67;33.72;;;18.10;99.90;;;;;;4957728;28;20074;-81
2021/06/12 10:10:25;;;;;;;39.83;31.73;;;18.40;99.90;;;;;;4962984;28;20046;-81
2021/06/12 10:12:53;;;;;;;39.70;31.92;;;18.20;99.90;;;;;;4977081;28;20498;-82
2021/06/12 10:15:20;;;;;;;38.92;33.33;;;18.30;99.90;;;;;;4975173;28;20455;-82
2021/06/12 10:17:52;;;;;;;36.78;31.13;;;18.40;99.90;;;;;;4944341;28;20084;-81
2021/06/12 10:20:22;;;;;;;34.28;30.60;;;18.40;99.90;;;;;;4957985;28;20058;-82
2021/06/12 10:22:51;;;;;;;32.30;28.02;;;18.70;99.90;;;;;;4939554;28;20134;-82
2021/06/12 10:25:21;;;;;;;33.55;30.00;;;18.80;99.90;;;;;;4941813;28;20098;-83
2021/06/12 10:27:49;;;;;;;33.40;29.70;;;19.10;99.90;;;;;;4947091;28;20102;-82
2021/06/12 10:30:23;;;;;;;30.77;27.67;;;19.50;99.90;;;;;;4959999;28;20054;-81
2021/06/12 10:32:53;;;;;;;28.80;25.77;;;19.70;99.90;;;;;;4977633;28;20371;-81
2021/06/12 10:35:21;;;;;;;28.58;25.73;;;19.80;99.90;;;;;;4962492;28;20142;-82
2021/06/12 10:37:54;;;;;;;28.15;25.23;;;19.70;99.90;;;;;;4995901;28;20070;-81
2021/06/12 10:40:44;;;;;;;28.65;25.55;;;19.60;99.90;;;;;;4977521;28;20046;-81
2021/06/12 10:43:14;;;;;;;28.17;25.40;;;19.30;99.90;;;;;;4976208;28;20077;-81
2021/06/12 10:45:43;;;;;;;27.67;25.08;;;19.30;99.90;;;;;;4962399;28;20104;-81
2021/06/12 10:48:49;;;;;;;28.52;25.42;;;19.50;99.90;;;;;;4953593;28;20049;-80
2021/06/12 10:51:26;;;;;;;26.55;23.63;;;19.60;99.90;;;;;;4930878;28;20043;-80
2021/06/12 10:54:22;;;;;;;26.25;23.50;;;19.70;99.90;;;;;;4947845;28;20055;-82
2021/06/12 10:56:56;;;;;;;26.08;23.25;;;19.50;99.90;;;;;;4932022;28;20058;-80
2021/06/12 10:59:45;;;;;;;27.25;22.13;;;19.30;99.90;;;;;;4974067;28;20042;-80
2021/06/12 11:04:57;;;;;;;26.27;21.75;;;18.70;99.90;;;;;;4965534;28;20061;-81
2021/06/12 11:07:45;;;;;;;23.42;20.70;;;18.60;99.90;;;;;;4979905;28;20046;-84
2021/06/12 11:10:12;;;;;;;26.50;22.27;;;18.50;99.90;;;;;;4974699;28;20051;-81
2021/06/12 11:12:43;;;;;;;25.33;21.98;;;18.60;99.90;;;;;;4958550;28;20104;-82
2021/06/12 11:15:33;;;;;;;23.42;20.50;;;18.70;99.90;;;;;;4963462;28;20137;-79
2021/06/12 11:18:22;;;;;;;22.05;19.13;;;19.30;99.90;;;;;;4997278;28;20307;-81
2021/06/12 11:21:02;;;;;;;22.77;19.60;;;19.90;99.90;;;;;;4994531;28;20050;-81
2021/06/12 11:23:53;;;;;;;23.60;21.33;;;20.30;99.90;;;;;;4962565;28;20050;-80
2021/06/12 11:26:21;;;;;;;22.83;20.42;;;20.40;99.90;;;;;;4999542;28;20125;-80
2021/06/12 11:29:10;;;;;;;21.98;19.70;;;20.60;99.90;;;;;;5008827;28;20046;-81
2021/06/12 11:31:38;;;;;;;21.95;19.77;;;20.80;99.90;;;;;;5020901;28;20069;-81
2021/06/12 11:34:11;;;;;;;21.17;19.27;;;21.00;99.90;;;;;;4980941;28;20046;-84
2021/06/12 11:36:38;;;;;;;20.15;18.05;;;21.20;99.90;;;;;;4986805;28;20616;-80
2021/06/12 11:39:06;;;;;;;17.83;13.93;;;21.30;99.90;;;;;;4967082;28;20062;-80
2021/06/12 11:41:33;;;;;;;15.68;13.68;;;21.50;99.90;;;;;;4972811;28;20141;-77
2021/06/12 11:44:00;;;;;;;17.55;16.02;;;21.60;99.90;;;;;;4974693;28;20045;-82
2021/06/12 11:46:42;;;;;;;16.27;14.65;;;21.70;99.90;;;;;;4976908;28;20096;-79
2021/06/12 11:49:12;;;;;;;15.68;14.23;;;22.00;99.90;;;;;;4977417;28;20050;-81
2021/06/12 11:51:42;;;;;;;15.65;14.15;;;21.70;99.90;;;;;;4961009;28;20052;-81
2021/06/12 11:54:11;;;;;;;15.80;14.60;;;21.30;99.90;;;;;;5011831;28;20065;-80
2021/06/12 11:56:43;;;;;;;14.35;13.30;;;21.00;99.90;;;;;;4996343;28;20046;-81
2021/06/12 11:59:16;;;;;;;15.02;13.57;;;20.70;99.90;;;;;;4992454;28;20045;-80
2021/06/12 12:01:46;;;;;;;13.65;12.48;;;20.50;99.90;;;;;;5008370;28;20072;-80
2021/06/12 12:04:13;;;;;;;14.80;13.50;;;20.20;99.90;;;;;;4985600;28;20046;-80
2021/06/12 12:06:57;;;;;;;15.10;13.82;;;20.00;99.90;;;;;;5018757;28;20042;-82
2021/06/12 12:09:25;;;;;;;16.40;15.07;;;19.80;99.90;;;;;;4995682;28;20630;-81
2021/06/12 12:11:58;;;;;;;16.42;14.82;;;19.50;99.90;;;;;;4961191;28;20162;-80
2021/06/12 12:14:33;;;;;;;14.45;13.40;;;19.40;99.90;;;;;;4953634;28;20066;-81
2021/06/12 12:17:02;;;;;;;16.05;14.55;;;19.20;99.90;;;;;;4967005;28;20045;-80
2021/06/12 12:19:30;;;;;;;16.15;14.85;;;19.30;99.90;;;;;;4976738;28;20054;-79
2021/06/12 12:22:02;;;;;;;16.30;14.85;;;19.40;99.90;;;;;;4976178;28;20158;-80
2021/06/12 12:24:32;;;;;;;17.42;15.73;;;19.30;99.90;;;;;;4979745;28;20460;-79
2021/06/12 12:27:09;;;;;;;15.73;14.32;;;19.50;99.90;;;;;;4978677;28;20042;-78
2021/06/12 12:29:39;;;;;;;16.65;15.15;;;19.70;99.90;;;;;;4969765;28;20593;-79
2021/06/12 12:32:07;;;;;;;16.05;14.63;;;20.00;99.90;;;;;;4980360;28;20073;-80
2021/06/12 12:34:39;;;;;;;16.90;15.02;;;20.40;99.90;;;;;;4979968;28;20046;-78
2021/06/12 12:37:17;;;;;;;15.35;13.90;;;20.50;99.90;;;;;;4990357;28;20126;-80
2021/06/12 12:39:46;;;;;;;16.08;14.60;;;20.70;99.90;;;;;;4977675;28;20072;-81
2021/06/12 12:42:24;;;;;;;14.95;13.90;;;21.10;99.90;;;;;;4996500;28;20145;-80
2021/06/12 12:44:58;;;;;;;16.02;14.50;;;21.40;99.90;;;;;;4962562;28;20141;-81